Crustaceo — CURE8 — position and weather

sailwx.info

Track history (hours):
 
Tides and Currents Weather Stations Pressure Air Temp Water Temp Dewpoint Dewpoint Depression Visibility Wind Speed Wind Dir Waves Ship Positions

Crustaceo

Last reported at 2018-Jul-22 06:36 UTC. Time now 2018-Jul-23 06:00 UTC.
Position N 38°07' W 009°24'.

Length 23 m.

Type: Fishing. MMSI: 204263000.

Date/timePositionNaut miles runAvg speedWind from/ knotsBaromVisibWave heightAir tempDewpointWater temp
2018-Jul-22 06:36N 38°07' W 009°24'10 6.4
2018-Jul-22 05:06N 38°04' W 009°13'1 7.3
2018-Jul-22 05:00N 38°03' W 009°12'4 7.2
2018-Jul-22 04:30N 38°02' W 009°08'4 7.3
2018-Jul-22 04:01N 38°00' W 009°04'4 7.5
2018-Jul-22 03:31N 37°58' W 008°59'4 7.4
2018-Jul-22 03:01N 37°57' W 008°55'2 4.7
2018-Jul-22 02:30N 37°57' W 008°52'0 0.0
2018-Jul-22 02:00N 37°57' W 008°52'0 0.0
2018-Jul-22 01:30N 37°57' W 008°52'0 0.0
2018-Jul-22 01:00N 37°57' W 008°52'0 0.0
2018-Jul-22 00:30N 37°57' W 008°52'0 0.0
2018-Jul-22 00:00N 37°57' W 008°52'0 0.0
2018-Jul-21 23:30N 37°57' W 008°52'0 0.0
2018-Jul-21 23:00N 37°57' W 008°52'0 0.0
2018-Jul-21 22:30N 37°57' W 008°52'0 0.0
2018-Jul-21 22:00N 37°57' W 008°52'0 0.0
2018-Jul-21 21:30N 37°57' W 008°52'2 3.4
2018-Jul-21 21:00N 37°56' W 008°53'4 7.2
2018-Jul-21 20:30N 37°54' W 008°58'4 7.3
2018-Jul-21 20:00N 37°53' W 009°02'4 7.5
2018-Jul-21 19:30N 37°52' W 009°06'4 7.2
2018-Jul-21 19:00N 37°50' W 009°10'0 0.7
2018-Jul-21 18:30N 37°50' W 009°10'1 2.4
2018-Jul-21 18:00N 37°49' W 009°10'1 2.4
2018-Jul-21 17:30N 37°48' W 009°10'2 2.3
2018-Jul-21 16:43N 37°46' W 009°09'1 2.5
2018-Jul-21 16:30N 37°46' W 009°09'1 2.1
2018-Jul-21 16:00N 37°45' W 009°08'2 3.0
2018-Jul-21 15:30N 37°46' W 009°09'1 3.0
2018-Jul-21 15:00N 37°47' W 009°10'2 3.3
2018-Jul-21 14:30N 37°49' W 009°11'0 0.5
2018-Jul-21 13:30N 37°49' W 009°10'1 2.7
2018-Jul-21 13:00N 37°48' W 009°10'2 2.7
2018-Jul-21 12:25N 37°46' W 009°09'1 2.6
2018-Jul-21 12:00N 37°45' W 009°09'1 1.1
2018-Jul-21 11:30N 37°45' W 009°08'1 2.9
2018-Jul-21 11:00N 37°47' W 009°09'1 2.9
2018-Jul-21 10:30N 37°48' W 009°09'1 2.7
2018-Jul-21 10:00N 37°49' W 009°10'1 1.9
2018-Jul-21 09:30N 37°50' W 009°11'1 1.3
2018-Jul-21 09:00N 37°49' W 009°10'1 2.6
2018-Jul-21 08:30N 37°48' W 009°10'2 2.6
2018-Jul-21 07:40N 37°46' W 009°09'0 2.9
2018-Jul-21 07:29N 37°46' W 009°09'0 0.8
2018-Jul-21 07:00N 37°45' W 009°08'2 2.8
2018-Jul-21 06:21N 37°47' W 009°09'1 2.8
2018-Jul-21 06:00N 37°48' W 009°10'1 2.6
2018-Jul-21 05:30N 37°49' W 009°10'1 2.4
2018-Jul-21 05:00N 37°50' W 009°11'0 0.5
2018-Jul-21 04:30N 37°51' W 009°11'1 2.2
2018-Jul-21 04:00N 37°50' W 009°11'2 4.7
2018-Jul-21 03:30N 37°47' W 009°12'2 4.7
2018-Jul-21 03:00N 37°45' W 009°13'2 4.5
2018-Jul-21 02:28N 37°43' W 009°14'2 4.3
2018-Jul-21 02:00N 37°41' W 009°14'4 1.1
2018-Jul-20 21:50N 37°44' W 009°18'1 2.8
2018-Jul-20 21:30N 37°45' W 009°18'1 2.7
2018-Jul-20 21:00N 37°46' W 009°17'2 4.8
2018-Jul-20 20:30N 37°47' W 009°15'4 7.6
2018-Jul-20 20:00N 37°48' W 009°10'0 0.5
2018-Jul-20 19:30N 37°49' W 009°10'3 2.3
2018-Jul-20 17:59N 37°45' W 009°09'1 2.9
2018-Jul-20 17:30N 37°44' W 009°08'1 2.8
2018-Jul-20 17:00N 37°45' W 009°08'2 3.1
2018-Jul-20 16:20N 37°47' W 009°09'1 3.0
2018-Jul-20 16:00N 37°48' W 009°10'2 3.1
2018-Jul-20 15:30N 37°50' W 009°10'0 0.8
2018-Jul-20 15:00N 37°50' W 009°10'0 0.6
2018-Jul-20 14:30N 37°50' W 009°10'1 2.5
2018-Jul-20 14:00N 37°48' W 009°10'1 2.5
2018-Jul-20 13:29N 37°47' W 009°10'1 2.7
2018-Jul-20 12:59N 37°46' W 009°09'2 3.2
2018-Jul-20 12:30N 37°44' W 009°08'1 1.6
2018-Jul-20 12:00N 37°45' W 009°08'2 3.0
2018-Jul-20 11:29N 37°47' W 009°09'1 2.9
2018-Jul-20 11:00N 37°48' W 009°10'1 2.6
2018-Jul-20 10:30N 37°49' W 009°10'1 1.9
2018-Jul-20 10:00N 37°50' W 009°11'0 1.0
2018-Jul-20 09:30N 37°50' W 009°10'1 2.8
2018-Jul-20 09:00N 37°48' W 009°10'2 2.8
2018-Jul-20 08:12N 37°46' W 009°09'1 2.8
2018-Jul-20 08:00N 37°46' W 009°09'1 1.8
2018-Jul-20 07:30N 37°45' W 009°08'2 2.9
2018-Jul-20 06:59N 37°46' W 009°09'1 2.9
2018-Jul-20 06:30N 37°48' W 009°09'1 3.0
2018-Jul-20 06:00N 37°49' W 009°10'1 2.9
2018-Jul-20 05:30N 37°50' W 009°11'0 0.4
2018-Jul-20 05:00N 37°50' W 009°11'4 7.0
2018-Jul-20 04:30N 37°52' W 009°06'4 7.4
2018-Jul-20 04:00N 37°53' W 009°02'4 7.4
2018-Jul-20 03:30N 37°54' W 008°58'4 7.4
2018-Jul-20 03:00N 37°56' W 008°54'2 3.3
2018-Jul-20 02:30N 37°57' W 008°52'0 0.0
2018-Jul-20 02:00N 37°57' W 008°52'0 0.0
2018-Jul-20 01:30N 37°57' W 008°52'0 0.0
2018-Jul-20 01:00N 37°57' W 008°52'0 0.0
2018-Jul-20 00:30N 37°57' W 008°52'0 0.0
2018-Jul-20 00:00N 37°57' W 008°52'0 0.0
2018-Jul-19 23:30N 37°57' W 008°52'0 0.0
2018-Jul-19 23:00N 37°57' W 008°52'0 0.0
2018-Jul-19 22:30N 37°57' W 008°52'0 0.0
2018-Jul-19 22:00N 37°57' W 008°52'0 0.0
2018-Jul-19 21:30N 37°57' W 008°52'0 0.0
2018-Jul-19 20:57N 37°57' W 008°52'0 0.0
2018-Jul-19 20:31N 37°57' W 008°52'1 2.9
2018-Jul-19 20:01N 37°56' W 008°53'4 7.1
2018-Jul-19 19:31N 37°54' W 008°57'4 7.4
2018-Jul-19 19:01N 37°52' W 009°01'4 7.7
2018-Jul-19 18:31N 37°51' W 009°06'3 5.9
2018-Jul-19 17:58N 37°49' W 009°09'1 1.3
2018-Jul-19 17:30N 37°49' W 009°09'2 3.1
2018-Jul-19 16:52N 37°47' W 009°09'1 2.4
2018-Jul-19 16:27N 37°47' W 009°09'1 2.9
2018-Jul-19 16:01N 37°49' W 009°10'2 3.5
2018-Jul-19 15:30N 37°50' W 009°11'0 0.6
2018-Jul-19 15:00N 37°51' W 009°10'1 2.7
2018-Jul-19 14:30N 37°49' W 009°10'3 2.8
2018-Jul-19 13:18N 37°46' W 009°08'1 1.7
2018-Jul-19 12:58N 37°46' W 009°09'1 2.9
2018-Jul-19 12:31N 37°47' W 009°10'1 2.9
2018-Jul-19 12:00N 37°48' W 009°11'2 3.2
2018-Jul-19 11:30N 37°49' W 009°12'2 0.1
2018-Jul-18 16:57N 37°51' W 009°13'1 2.6
2018-Jul-18 16:30N 37°50' W 009°13'1 2.6
2018-Jul-18 16:01N 37°49' W 009°14'2 3.3
2018-Jul-18 15:31N 37°48' W 009°15'1 1.9
2018-Jul-18 15:00N 37°48' W 009°14'1 2.7
2018-Jul-18 14:30N 37°50' W 009°13'3 2.7
2018-Jul-18 13:30N 37°52' W 009°13'1 2.7
2018-Jul-18 13:00N 37°54' W 009°13'2 3.2
2018-Jul-18 12:31N 37°55' W 009°13'0 0.2
2018-Jul-18 12:00N 37°55' W 009°13'1 1.2
2018-Jul-18 11:31N 37°55' W 009°13'3 2.7
2018-Jul-18 10:31N 37°52' W 009°13'1 2.6
2018-Jul-18 10:01N 37°51' W 009°13'1 2.7
2018-Jul-18 09:30N 37°49' W 009°14'1 2.7
2018-Jul-18 09:01N 37°49' W 009°15'1 2.5
2018-Jul-18 08:30N 37°48' W 009°16'1 2.7
2018-Jul-18 08:01N 37°48' W 009°15'1 2.5
2018-Jul-18 07:30N 37°49' W 009°14'1 2.6
2018-Jul-18 07:00N 37°50' W 009°13'1 2.7
2018-Jul-18 06:31N 37°51' W 009°12'1 2.8
2018-Jul-18 06:01N 37°53' W 009°12'2 3.2
2018-Jul-18 05:30N 37°54' W 009°13'1 2.8
2018-Jul-18 05:01N 37°55' W 009°11'3 6.8
2018-Jul-18 04:30N 37°55' W 009°07'3 6.8
2018-Jul-18 04:01N 37°56' W 009°02'4 7.1
2018-Jul-18 03:30N 37°56' W 008°58'3 7.0
2018-Jul-18 03:01N 37°56' W 008°53'2 3.0
2018-Jul-18 02:30N 37°57' W 008°52'0 0.0
2018-Jul-18 02:00N 37°57' W 008°52'0 0.0
2018-Jul-18 01:29N 37°57' W 008°52'0 0.0
2018-Jul-18 01:00N 37°57' W 008°52'0 0.0
2018-Jul-18 00:31N 37°57' W 008°52'0 0.0
2018-Jul-18 00:01N 37°57' W 008°52'0 0.0
2018-Jul-17 23:29N 37°57' W 008°52'0 0.0
2018-Jul-17 23:00N 37°57' W 008°52'0 0.0
2018-Jul-17 22:29N 37°57' W 008°52'0 0.0
2018-Jul-17 22:01N 37°57' W 008°52'0 0.0
2018-Jul-17 21:30N 37°57' W 008°52'0 0.0
2018-Jul-17 21:00N 37°57' W 008°52'0 0.0
2018-Jul-17 20:31N 37°57' W 008°52'0 0.0
2018-Jul-17 20:00N 37°57' W 008°52'2 3.5
2018-Jul-17 19:30N 37°56' W 008°54'4 8.1
2018-Jul-17 19:01N 37°55' W 008°59'20 0.4
2018-Jul-15 23:27N 38°06' W 009°20'3 7.5
2018-Jul-15 23:00N 38°05' W 009°16'4 7.4
2018-Jul-15 22:30N 38°03' W 009°12'4 7.2
2018-Jul-15 22:00N 38°02' W 009°07'4 7.8
2018-Jul-15 21:30N 37°60' W 009°03'4 7.9
2018-Jul-15 21:00N 37°58' W 008°58'4 7.7
2018-Jul-15 20:30N 37°56' W 008°54'2 3.3
2018-Jul-15 20:00N 37°57' W 008°52'0 0.0
2018-Jul-15 19:24N 37°57' W 008°52'0 0.0
2018-Jul-15 19:00N 37°57' W 008°52'0 0.0
2018-Jul-15 18:30N 37°57' W 008°52'0 0.0
2018-Jul-15 18:01N 37°57' W 008°52'0 0.0
2018-Jul-15 17:30N 37°57' W 008°52'0 0.0
2018-Jul-15 17:00N 37°57' W 008°52'2 4.6
2018-Jul-15 16:30N 37°56' W 008°55'4 8.2
2018-Jul-15 16:01N 37°57' W 009°00'10 0.2
2018-Jul-13 17:58N 37°57' W 009°13'1 2.7
2018-Jul-13 17:31N 37°56' W 009°12'1 2.9
2018-Jul-13 17:00N 37°55' W 009°13'1 2.8
2018-Jul-13 16:30N 37°53' W 009°13'1 2.9
2018-Jul-13 16:01N 37°52' W 009°12'2 3.2
2018-Jul-13 15:30N 37°50' W 009°12'1 1.1
2018-Jul-13 15:01N 37°51' W 009°13'3 2.8
2018-Jul-13 14:01N 37°54' W 009°13'1 2.7
2018-Jul-13 13:31N 37°55' W 009°12'1 2.8
2018-Jul-13 13:01N 37°56' W 009°12'2 3.4
2018-Jul-13 12:31N 37°58' W 009°11'3 5.8
2018-Jul-13 12:01N 37°58' W 009°07'4 7.6
2018-Jul-13 11:31N 37°57' W 009°03'4 8.1
2018-Jul-13 11:01N 37°57' W 008°58'4 7.4
2018-Jul-13 10:31N 37°56' W 008°53'1 1.8
2018-Jul-13 10:00N 37°57' W 008°52'0 0.0
2018-Jul-13 09:31N 37°57' W 008°52'0 0.0
2018-Jul-13 09:00N 37°57' W 008°52'0 0.0
2018-Jul-13 08:30N 37°57' W 008°52'0 0.0
2018-Jul-13 08:01N 37°57' W 008°52'0 0.0
2018-Jul-13 07:31N 37°57' W 008°52'0 0.0
2018-Jul-13 07:01N 37°57' W 008°52'0 0.0
2018-Jul-13 06:27N 37°57' W 008°52'0 0.0
2018-Jul-13 05:59N 37°57' W 008°52'0 0.0
2018-Jul-13 05:31N 37°57' W 008°52'0 0.0
2018-Jul-13 05:00N 37°57' W 008°52'0 0.0
2018-Jul-13 04:31N 37°57' W 008°52'0 0.0
2018-Jul-13 04:00N 37°57' W 008°52'0 0.0
2018-Jul-13 03:30N 37°57' W 008°52'0 0.1
2018-Jul-13 03:01N 37°57' W 008°52'0 0.2
2018-Jul-13 02:30N 37°57' W 008°52'0 0.0
2018-Jul-13 02:01N 37°57' W 008°52'0 0.0
2018-Jul-13 01:31N 37°57' W 008°52'0 0.0
2018-Jul-13 01:01N 37°57' W 008°52'0 0.0
2018-Jul-13 00:30N 37°57' W 008°52'0 0.0
2018-Jul-13 00:00N 37°57' W 008°52'0 0.0
2018-Jul-12 23:31N 37°57' W 008°52'0 0.0
2018-Jul-12 23:01N 37°57' W 008°52'0 0.0
2018-Jul-12 22:31N 37°57' W 008°52'0 0.0
2018-Jul-12 22:01N 37°57' W 008°52'0 0.0
2018-Jul-12 21:31N 37°57' W 008°52'0 0.0
2018-Jul-12 21:00N 37°57' W 008°52'0 0.0
2018-Jul-12 20:30N 37°57' W 008°52'0 0.0
2018-Jul-12 20:00N 37°57' W 008°52'0 0.0
2018-Jul-12 19:31N 37°57' W 008°52'1 2.9
2018-Jul-12 19:00N 37°56' W 008°53'4 8.2
2018-Jul-12 18:31N 37°54' W 008°58'4 7.9
2018-Jul-12 18:00N 37°53' W 009°03'  
Track history (hours):
 
Tides and Currents Weather Stations Pressure Air Temp Water Temp Dewpoint Dewpoint Depression Visibility Wind Speed Wind Dir Waves Ship Positions

Crustaceo

Last reported at 2018-Jul-22 06:36 UTC. Time now 2018-Jul-23 06:00 UTC.
Position N 38°07' W 009°24'.

Length 23 m.

Type: Fishing. MMSI: 204263000.

Date/timePositionNaut miles runAvg speedWind from/ knotsBaromVisibWave heightAir tempDewpointWater temp
2018-Jul-22 06:36N 38°07' W 009°24'10 6.4
2018-Jul-22 05:06N 38°04' W 009°13'1 7.3
2018-Jul-22 05:00N 38°03' W 009°12'4 7.2
2018-Jul-22 04:30N 38°02' W 009°08'4 7.3
2018-Jul-22 04:01N 38°00' W 009°04'4 7.5
2018-Jul-22 03:31N 37°58' W 008°59'4 7.4
2018-Jul-22 03:01N 37°57' W 008°55'2 4.7
2018-Jul-22 02:30N 37°57' W 008°52'0 0.0
2018-Jul-22 02:00N 37°57' W 008°52'0 0.0
2018-Jul-22 01:30N 37°57' W 008°52'0 0.0
2018-Jul-22 01:00N 37°57' W 008°52'0 0.0
2018-Jul-22 00:30N 37°57' W 008°52'0 0.0
2018-Jul-22 00:00N 37°57' W 008°52'0 0.0
2018-Jul-21 23:30N 37°57' W 008°52'0 0.0
2018-Jul-21 23:00N 37°57' W 008°52'0 0.0
2018-Jul-21 22:30N 37°57' W 008°52'0 0.0
2018-Jul-21 22:00N 37°57' W 008°52'0 0.0
2018-Jul-21 21:30N 37°57' W 008°52'2 3.4
2018-Jul-21 21:00N 37°56' W 008°53'4 7.2
2018-Jul-21 20:30N 37°54' W 008°58'4 7.3
2018-Jul-21 20:00N 37°53' W 009°02'4 7.5
2018-Jul-21 19:30N 37°52' W 009°06'4 7.2
2018-Jul-21 19:00N 37°50' W 009°10'0 0.7
2018-Jul-21 18:30N 37°50' W 009°10'1 2.4
2018-Jul-21 18:00N 37°49' W 009°10'1 2.4
2018-Jul-21 17:30N 37°48' W 009°10'2 2.3
2018-Jul-21 16:43N 37°46' W 009°09'1 2.5
2018-Jul-21 16:30N 37°46' W 009°09'1 2.1
2018-Jul-21 16:00N 37°45' W 009°08'2 3.0
2018-Jul-21 15:30N 37°46' W 009°09'1 3.0
2018-Jul-21 15:00N 37°47' W 009°10'2 3.3
2018-Jul-21 14:30N 37°49' W 009°11'0 0.5
2018-Jul-21 13:30N 37°49' W 009°10'1 2.7
2018-Jul-21 13:00N 37°48' W 009°10'2 2.7
2018-Jul-21 12:25N 37°46' W 009°09'1 2.6
2018-Jul-21 12:00N 37°45' W 009°09'1 1.1
2018-Jul-21 11:30N 37°45' W 009°08'1 2.9
2018-Jul-21 11:00N 37°47' W 009°09'1 2.9
2018-Jul-21 10:30N 37°48' W 009°09'1 2.7
2018-Jul-21 10:00N 37°49' W 009°10'1 1.9
2018-Jul-21 09:30N 37°50' W 009°11'1 1.3
2018-Jul-21 09:00N 37°49' W 009°10'1 2.6
2018-Jul-21 08:30N 37°48' W 009°10'2 2.6
2018-Jul-21 07:40N 37°46' W 009°09'0 2.9
2018-Jul-21 07:29N 37°46' W 009°09'0 0.8
2018-Jul-21 07:00N 37°45' W 009°08'2 2.8
2018-Jul-21 06:21N 37°47' W 009°09'1 2.8
2018-Jul-21 06:00N 37°48' W 009°10'1 2.6
2018-Jul-21 05:30N 37°49' W 009°10'1 2.4
2018-Jul-21 05:00N 37°50' W 009°11'0 0.5
2018-Jul-21 04:30N 37°51' W 009°11'1 2.2
2018-Jul-21 04:00N 37°50' W 009°11'2 4.7
2018-Jul-21 03:30N 37°47' W 009°12'2 4.7
2018-Jul-21 03:00N 37°45' W 009°13'2 4.5
2018-Jul-21 02:28N 37°43' W 009°14'2 4.3
2018-Jul-21 02:00N 37°41' W 009°14'4 1.1
2018-Jul-20 21:50N 37°44' W 009°18'1 2.8
2018-Jul-20 21:30N 37°45' W 009°18'1 2.7
2018-Jul-20 21:00N 37°46' W 009°17'2 4.8
2018-Jul-20 20:30N 37°47' W 009°15'4 7.6
2018-Jul-20 20:00N 37°48' W 009°10'0 0.5
2018-Jul-20 19:30N 37°49' W 009°10'3 2.3
2018-Jul-20 17:59N 37°45' W 009°09'1 2.9
2018-Jul-20 17:30N 37°44' W 009°08'1 2.8
2018-Jul-20 17:00N 37°45' W 009°08'2 3.1
2018-Jul-20 16:20N 37°47' W 009°09'1 3.0
2018-Jul-20 16:00N 37°48' W 009°10'2 3.1
2018-Jul-20 15:30N 37°50' W 009°10'0 0.8
2018-Jul-20 15:00N 37°50' W 009°10'0 0.6
2018-Jul-20 14:30N 37°50' W 009°10'1 2.5
2018-Jul-20 14:00N 37°48' W 009°10'1 2.5
2018-Jul-20 13:29N 37°47' W 009°10'1 2.7
2018-Jul-20 12:59N 37°46' W 009°09'2 3.2
2018-Jul-20 12:30N 37°44' W 009°08'1 1.6
2018-Jul-20 12:00N 37°45' W 009°08'2 3.0
2018-Jul-20 11:29N 37°47' W 009°09'1 2.9
2018-Jul-20 11:00N 37°48' W 009°10'1 2.6
2018-Jul-20 10:30N 37°49' W 009°10'1 1.9
2018-Jul-20 10:00N 37°50' W 009°11'0 1.0
2018-Jul-20 09:30N 37°50' W 009°10'1 2.8
2018-Jul-20 09:00N 37°48' W 009°10'2 2.8
2018-Jul-20 08:12N 37°46' W 009°09'1 2.8
2018-Jul-20 08:00N 37°46' W 009°09'1 1.8
2018-Jul-20 07:30N 37°45' W 009°08'2 2.9
2018-Jul-20 06:59N 37°46' W 009°09'1 2.9
2018-Jul-20 06:30N 37°48' W 009°09'1 3.0
2018-Jul-20 06:00N 37°49' W 009°10'1 2.9
2018-Jul-20 05:30N 37°50' W 009°11'0 0.4
2018-Jul-20 05:00N 37°50' W 009°11'4 7.0
2018-Jul-20 04:30N 37°52' W 009°06'4 7.4
2018-Jul-20 04:00N 37°53' W 009°02'4 7.4
2018-Jul-20 03:30N 37°54' W 008°58'4 7.4
2018-Jul-20 03:00N 37°56' W 008°54'2 3.3
2018-Jul-20 02:30N 37°57' W 008°52'0 0.0
2018-Jul-20 02:00N 37°57' W 008°52'0 0.0
2018-Jul-20 01:30N 37°57' W 008°52'0 0.0
2018-Jul-20 01:00N 37°57' W 008°52'0 0.0
2018-Jul-20 00:30N 37°57' W 008°52'0 0.0
2018-Jul-20 00:00N 37°57' W 008°52'0 0.0
2018-Jul-19 23:30N 37°57' W 008°52'0 0.0
2018-Jul-19 23:00N 37°57' W 008°52'0 0.0
2018-Jul-19 22:30N 37°57' W 008°52'0 0.0
2018-Jul-19 22:00N 37°57' W 008°52'0 0.0
2018-Jul-19 21:30N 37°57' W 008°52'0 0.0
2018-Jul-19 20:57N 37°57' W 008°52'0 0.0
2018-Jul-19 20:31N 37°57' W 008°52'1 2.9
2018-Jul-19 20:01N 37°56' W 008°53'4 7.1
2018-Jul-19 19:31N 37°54' W 008°57'4 7.4
2018-Jul-19 19:01N 37°52' W 009°01'4 7.7
2018-Jul-19 18:31N 37°51' W 009°06'3 5.9
2018-Jul-19 17:58N 37°49' W 009°09'1 1.3
2018-Jul-19 17:30N 37°49' W 009°09'2 3.1
2018-Jul-19 16:52N 37°47' W 009°09'1 2.4
2018-Jul-19 16:27N 37°47' W 009°09'1 2.9
2018-Jul-19 16:01N 37°49' W 009°10'2 3.5
2018-Jul-19 15:30N 37°50' W 009°11'0 0.6
2018-Jul-19 15:00N 37°51' W 009°10'1 2.7
2018-Jul-19 14:30N 37°49' W 009°10'3 2.8
2018-Jul-19 13:18N 37°46' W 009°08'1 1.7
2018-Jul-19 12:58N 37°46' W 009°09'1 2.9
2018-Jul-19 12:31N 37°47' W 009°10'1 2.9
2018-Jul-19 12:00N 37°48' W 009°11'2 3.2
2018-Jul-19 11:30N 37°49' W 009°12'2 0.1
2018-Jul-18 16:57N 37°51' W 009°13'1 2.6
2018-Jul-18 16:30N 37°50' W 009°13'1 2.6
2018-Jul-18 16:01N 37°49' W 009°14'2 3.3
2018-Jul-18 15:31N 37°48' W 009°15'1 1.9
2018-Jul-18 15:00N 37°48' W 009°14'1 2.7
2018-Jul-18 14:30N 37°50' W 009°13'3 2.7
2018-Jul-18 13:30N 37°52' W 009°13'1 2.7
2018-Jul-18 13:00N 37°54' W 009°13'2 3.2
2018-Jul-18 12:31N 37°55' W 009°13'0 0.2
2018-Jul-18 12:00N 37°55' W 009°13'1 1.2
2018-Jul-18 11:31N 37°55' W 009°13'3 2.7
2018-Jul-18 10:31N 37°52' W 009°13'1 2.6
2018-Jul-18 10:01N 37°51' W 009°13'1 2.7
2018-Jul-18 09:30N 37°49' W 009°14'1 2.7
2018-Jul-18 09:01N 37°49' W 009°15'1 2.5
2018-Jul-18 08:30N 37°48' W 009°16'1 2.7
2018-Jul-18 08:01N 37°48' W 009°15'1 2.5
2018-Jul-18 07:30N 37°49' W 009°14'1 2.6
2018-Jul-18 07:00N 37°50' W 009°13'1 2.7
2018-Jul-18 06:31N 37°51' W 009°12'1 2.8
2018-Jul-18 06:01N 37°53' W 009°12'2 3.2
2018-Jul-18 05:30N 37°54' W 009°13'1 2.8
2018-Jul-18 05:01N 37°55' W 009°11'3 6.8
2018-Jul-18 04:30N 37°55' W 009°07'3 6.8
2018-Jul-18 04:01N 37°56' W 009°02'4 7.1
2018-Jul-18 03:30N 37°56' W 008°58'3 7.0
2018-Jul-18 03:01N 37°56' W 008°53'2 3.0
2018-Jul-18 02:30N 37°57' W 008°52'0 0.0
2018-Jul-18 02:00N 37°57' W 008°52'0 0.0
2018-Jul-18 01:29N 37°57' W 008°52'0 0.0
2018-Jul-18 01:00N 37°57' W 008°52'0 0.0
2018-Jul-18 00:31N 37°57' W 008°52'0 0.0
2018-Jul-18 00:01N 37°57' W 008°52'0 0.0
2018-Jul-17 23:29N 37°57' W 008°52'0 0.0
2018-Jul-17 23:00N 37°57' W 008°52'0 0.0
2018-Jul-17 22:29N 37°57' W 008°52'0 0.0
2018-Jul-17 22:01N 37°57' W 008°52'0 0.0
2018-Jul-17 21:30N 37°57' W 008°52'0 0.0
2018-Jul-17 21:00N 37°57' W 008°52'0 0.0
2018-Jul-17 20:31N 37°57' W 008°52'0 0.0
2018-Jul-17 20:00N 37°57' W 008°52'2 3.5
2018-Jul-17 19:30N 37°56' W 008°54'4 8.1
2018-Jul-17 19:01N 37°55' W 008°59'20 0.4
2018-Jul-15 23:27N 38°06' W 009°20'3 7.5
2018-Jul-15 23:00N 38°05' W 009°16'4 7.4
2018-Jul-15 22:30N 38°03' W 009°12'4 7.2
2018-Jul-15 22:00N 38°02' W 009°07'4 7.8
2018-Jul-15 21:30N 37°60' W 009°03'4 7.9
2018-Jul-15 21:00N 37°58' W 008°58'4 7.7
2018-Jul-15 20:30N 37°56' W 008°54'2 3.3
2018-Jul-15 20:00N 37°57' W 008°52'0 0.0
2018-Jul-15 19:24N 37°57' W 008°52'0 0.0
2018-Jul-15 19:00N 37°57' W 008°52'0 0.0
2018-Jul-15 18:30N 37°57' W 008°52'0 0.0
2018-Jul-15 18:01N 37°57' W 008°52'0 0.0
2018-Jul-15 17:30N 37°57' W 008°52'0 0.0
2018-Jul-15 17:00N 37°57' W 008°52'2 4.6
2018-Jul-15 16:30N 37°56' W 008°55'4 8.2
2018-Jul-15 16:01N 37°57' W 009°00'10 0.2
2018-Jul-13 17:58N 37°57' W 009°13'1 2.7
2018-Jul-13 17:31N 37°56' W 009°12'1 2.9
2018-Jul-13 17:00N 37°55' W 009°13'1 2.8
2018-Jul-13 16:30N 37°53' W 009°13'1 2.9
2018-Jul-13 16:01N 37°52' W 009°12'2 3.2
2018-Jul-13 15:30N 37°50' W 009°12'1 1.1
2018-Jul-13 15:01N 37°51' W 009°13'3 2.8
2018-Jul-13 14:01N 37°54' W 009°13'1 2.7
2018-Jul-13 13:31N 37°55' W 009°12'1 2.8
2018-Jul-13 13:01N 37°56' W 009°12'2 3.4
2018-Jul-13 12:31N 37°58' W 009°11'3 5.8
2018-Jul-13 12:01N 37°58' W 009°07'4 7.6
2018-Jul-13 11:31N 37°57' W 009°03'4 8.1
2018-Jul-13 11:01N 37°57' W 008°58'4 7.4
2018-Jul-13 10:31N 37°56' W 008°53'1 1.8
2018-Jul-13 10:00N 37°57' W 008°52'0 0.0
2018-Jul-13 09:31N 37°57' W 008°52'0 0.0
2018-Jul-13 09:00N 37°57' W 008°52'0 0.0
2018-Jul-13 08:30N 37°57' W 008°52'0 0.0
2018-Jul-13 08:01N 37°57' W 008°52'0 0.0
2018-Jul-13 07:31N 37°57' W 008°52'0 0.0
2018-Jul-13 07:01N 37°57' W 008°52'0 0.0
2018-Jul-13 06:27N 37°57' W 008°52'0 0.0
2018-Jul-13 05:59N 37°57' W 008°52'0 0.0
2018-Jul-13 05:31N 37°57' W 008°52'0 0.0
2018-Jul-13 05:00N 37°57' W 008°52'0 0.0
2018-Jul-13 04:31N 37°57' W 008°52'0 0.0
2018-Jul-13 04:00N 37°57' W 008°52'0 0.0
2018-Jul-13 03:30N 37°57' W 008°52'0 0.1
2018-Jul-13 03:01N 37°57' W 008°52'0 0.2
2018-Jul-13 02:30N 37°57' W 008°52'0 0.0
2018-Jul-13 02:01N 37°57' W 008°52'0 0.0
2018-Jul-13 01:31N 37°57' W 008°52'0 0.0
2018-Jul-13 01:01N 37°57' W 008°52'0 0.0
2018-Jul-13 00:30N 37°57' W 008°52'0 0.0
2018-Jul-13 00:00N 37°57' W 008°52'0 0.0
2018-Jul-12 23:31N 37°57' W 008°52'0 0.0
2018-Jul-12 23:01N 37°57' W 008°52'0 0.0
2018-Jul-12 22:31N 37°57' W 008°52'0 0.0
2018-Jul-12 22:01N 37°57' W 008°52'0 0.0
2018-Jul-12 21:31N 37°57' W 008°52'0 0.0
2018-Jul-12 21:00N 37°57' W 008°52'0 0.0
2018-Jul-12 20:30N 37°57' W 008°52'0 0.0
2018-Jul-12 20:00N 37°57' W 008°52'0 0.0
2018-Jul-12 19:31N 37°57' W 008°52'1 2.9
2018-Jul-12 19:00N 37°56' W 008°53'4 8.2
2018-Jul-12 18:31N 37°54' W 008°58'4 7.9
2018-Jul-12 18:00N 37°53' W 009°03'  

Dump ship's entire track history